Time;durP1;ratioP1;P1;durP2;ratioP2;P2;SDS_P1;SDS_P2;PMS_P1;PMS_P2;Temp;Humidity;BMP_temperature;BMP_pressure;BME280_temperature;BME280_humidity;BME280_pressure;Samples;Min_cycle;Max_cycle;Signal;HPM_P1;HPM_P2
2022/12/18 00:01:22;;;;;;;68.70;36.10;;;;;;;-4.55;79.98;101881.55;103297;1326;38356;-74
2022/12/18 00:03:56;;;;;;;95.70;54.10;;;;;;;-4.53;80.20;101885.73;103353;1326;37134;-72
2022/12/18 00:06:31;;;;;;;74.60;42.60;;;;;;;-4.48;80.18;101885.60;103195;1323;188070;-74
2022/12/18 00:09:05;;;;;;;88.80;42.40;;;;;;;-4.44;80.12;101889.39;103280;1323;37205;-75
2022/12/18 00:11:42;;;;;;;85.30;37.10;;;;;;;-4.37;80.26;101891.91;103335;1323;36784;-75
2022/12/18 00:14:16;;;;;;;79.30;34.10;;;;;;;-4.35;80.26;101899.50;103368;1326;37248;-74
2022/12/18 00:16:50;;;;;;;59.00;26.00;;;;;;;-4.34;80.30;101896.49;103297;1322;37208;-73
2022/12/18 00:19:24;;;;;;;54.90;24.80;;;;;;;-4.33;80.19;101901.48;103326;1323;36384;-75
2022/12/18 00:21:58;;;;;;;48.50;24.80;;;;;;;-4.30;80.24;101905.89;103310;1326;37121;-73
2022/12/18 00:24:32;;;;;;;76.80;35.60;;;;;;;-4.27;80.03;101912.16;103355;1323;37231;-76
2022/12/18 00:27:07;;;;;;;76.10;35.00;;;;;;;-4.24;80.08;101914.31;103311;1326;36267;-76
2022/12/18 00:29:42;;;;;;;60.70;29.50;;;;;;;-4.25;80.18;101911.77;103333;1323;37215;-72
2022/12/18 00:32:16;;;;;;;106.50;47.60;;;;;;;-4.26;80.08;101918.70;103300;1323;37248;-72
2022/12/18 00:34:53;;;;;;;76.70;35.10;;;;;;;-4.27;80.13;101915.07;103282;1322;37135;-73
2022/12/18 00:37:27;;;;;;;91.30;41.50;;;;;;;-4.26;80.18;101923.98;103275;1326;36683;-73
2022/12/18 00:40:02;;;;;;;81.00;36.80;;;;;;;-4.22;80.31;101925.20;103307;1324;36729;-76
2022/12/18 00:45:28;;;;;;;74.50;36.40;;;;;;;-4.19;80.24;101937.29;103313;1326;37233;-74
2022/12/18 00:48:02;;;;;;;76.30;33.90;;;;;;;-4.18;80.27;101940.20;103304;1329;38944;-76
2022/12/18 00:50:36;;;;;;;90.30;42.10;;;;;;;-4.19;80.05;101942.20;103290;1324;38750;-76
2022/12/18 00:53:10;;;;;;;57.90;28.90;;;;;;;-4.20;80.04;101947.77;103335;1326;38306;-75
2022/12/18 00:55:47;;;;;;;84.90;40.00;;;;;;;-4.22;79.80;101948.03;103335;1326;38653;-76
2022/12/18 00:58:21;;;;;;;88.30;40.50;;;;;;;-4.23;79.82;101946.10;103373;1326;36655;-73
2022/12/18 01:00:56;;;;;;;82.90;38.70;;;;;;;-4.22;80.03;101952.29;103336;1323;38466;-73
2022/12/18 01:03:30;;;;;;;66.50;31.80;;;;;;;-4.21;79.97;101959.16;103377;1326;37408;-74
2022/12/18 01:06:11;;;;;;;55.50;28.70;;;;;;;-4.21;79.91;101955.73;103315;1324;36156;-76
2022/12/18 01:08:45;;;;;;;85.60;38.50;;;;;;;-4.22;79.96;101958.92;103358;1323;37131;-75
2022/12/18 01:11:21;;;;;;;78.70;37.50;;;;;;;-4.20;79.97;101954.56;103334;1326;36284;-73
2022/12/18 01:13:57;;;;;;;60.20;30.60;;;;;;;-4.18;79.96;101956.73;103280;1323;37196;-72
2022/12/18 01:16:31;;;;;;;72.80;34.50;;;;;;;-4.19;79.85;101958.54;103257;1328;36410;-73
2022/12/18 01:19:06;;;;;;;86.00;40.30;;;;;;;-4.22;79.77;101961.63;103244;1323;37304;-74
2022/12/18 01:21:40;;;;;;;58.20;29.00;;;;;;;-4.25;79.73;101969.16;103278;1323;37235;-75
2022/12/18 01:24:16;;;;;;;68.40;32.60;;;;;;;-4.27;79.77;101970.45;103288;1326;37157;-76
2022/12/18 01:26:52;;;;;;;63.20;30.60;;;;;;;-4.27;79.73;101974.53;103290;1323;37099;-75
2022/12/18 01:29:28;;;;;;;55.10;27.50;;;;;;;-4.25;79.86;101972.06;103302;1326;37136;-72
2022/12/18 01:32:03;;;;;;;65.90;32.30;;;;;;;-4.20;79.97;101981.31;103241;1325;38352;-73
2022/12/18 01:34:37;;;;;;;57.60;27.80;;;;;;;-4.17;80.02;101989.48;103276;1326;37133;-74
2022/12/18 01:37:11;;;;;;;52.00;25.20;;;;;;;-4.17;79.98;102000.73;103310;1324;36866;-74
2022/12/18 01:39:45;;;;;;;59.70;28.90;;;;;;;-4.18;80.04;102000.02;103304;1327;37270;-72
2022/12/18 01:42:20;;;;;;;47.20;23.50;;;;;;;-4.18;79.95;102002.07;103286;1324;38959;-73
2022/12/18 01:45:10;;;;;;;46.00;24.20;;;;;;;-4.16;79.95;102005.55;103347;1326;37107;-74
2022/12/18 01:47:46;;;;;;;64.00;33.60;;;;;;;-4.14;79.93;102010.92;103367;1326;37595;-76
2022/12/18 01:50:25;;;;;;;80.50;43.30;;;;;;;-4.12;79.89;102019.04;103321;1324;37349;-75
2022/12/18 01:53:01;;;;;;;72.10;37.90;;;;;;;-4.08;80.10;102014.77;103341;1324;37168;-75
2022/12/18 01:55:41;;;;;;;74.50;38.30;;;;;;;-4.07;80.05;102018.41;103291;1324;37097;-73
2022/12/18 01:58:15;;;;;;;51.10;28.20;;;;;;;-4.11;79.80;102015.17;103338;1326;37197;-74
2022/12/18 02:00:49;;;;;;;120.00;48.20;;;;;;;-4.15;79.82;102015.84;103307;1326;37367;-72
2022/12/18 02:03:23;;;;;;;107.10;44.40;;;;;;;-4.17;79.49;102019.98;103285;1326;38385;-74
2022/12/18 02:06:02;;;;;;;94.00;38.90;;;;;;;-4.21;79.53;102025.45;103274;1326;36938;-73
2022/12/18 02:08:41;;;;;;;126.10;46.30;;;;;;;-4.21;79.63;102026.95;103312;1326;36169;-73
2022/12/18 02:11:18;;;;;;;;;;;;;;;-4.22;79.61;102034.23;103325;1323;37339;-73
2022/12/18 02:13:58;;;;;;;87.60;35.80;;;;;;;-4.25;79.80;102045.48;103316;1323;37208;-75
2022/12/18 02:16:38;;;;;;;72.70;33.30;;;;;;;-4.27;79.83;102051.70;103252;1326;37424;-74
2022/12/18 02:19:21;;;;;;;70.80;32.40;;;;;;;-4.26;79.77;102054.27;103157;1329;38486;-73
2022/12/18 02:22:02;;;;;;;56.30;28.00;;;;;;;-4.27;79.51;102055.63;103286;1326;37506;-74
2022/12/18 02:24:39;;;;;;;49.80;24.70;;;;;;;-4.27;79.62;102056.29;103342;1328;37442;-73
2022/12/18 02:27:12;;;;;;;58.10;30.40;;;;;;;-4.28;79.72;102063.77;103298;1327;37409;-72
2022/12/18 02:29:49;;;;;;;57.10;29.40;;;;;;;-4.24;79.78;102058.66;103365;1326;38324;-73
2022/12/18 02:32:27;;;;;;;50.20;26.90;;;;;;;-4.23;79.74;102061.31;103310;1328;38549;-74
2022/12/18 02:35:01;;;;;;;43.40;23.90;;;;;;;-4.22;79.70;102066.97;103325;1326;37360;-72
2022/12/18 02:37:35;;;;;;;40.70;21.90;;;;;;;-4.23;79.41;102069.81;103288;1326;37102;-72
2022/12/18 02:40:12;;;;;;;43.70;23.60;;;;;;;-4.24;79.32;102072.31;103336;1327;37252;-74
2022/12/18 02:42:49;;;;;;;43.90;24.10;;;;;;;-4.25;79.25;102078.02;103300;1326;37374;-74
2022/12/18 02:45:23;;;;;;;48.20;25.20;;;;;;;-4.26;79.41;102078.15;103289;1326;36317;-74
2022/12/18 02:47:57;;;;;;;60.80;32.10;;;;;;;-4.25;79.55;102085.02;103305;1327;37231;-73
2022/12/18 02:50:34;;;;;;;51.30;29.00;;;;;;;-4.25;79.65;102081.27;103279;1326;37310;-76
2022/12/18 02:53:15;;;;;;;60.00;31.10;;;;;;;-4.25;79.43;102081.77;103179;1324;175493;-75
2022/12/18 02:56:03;;;;;;;51.50;28.10;;;;;;;-4.26;79.44;102091.11;103255;1326;37723;-75
2022/12/18 02:58:42;;;;;;;48.00;25.80;;;;;;;-4.24;79.40;102098.70;103130;1329;37271;-74
2022/12/18 03:01:20;;;;;;;45.90;24.30;;;;;;;-4.22;79.50;102103.91;103267;1326;37853;-73
2022/12/18 03:03:58;;;;;;;63.30;34.00;;;;;;;-4.22;79.48;102103.39;103281;1326;37007;-73
2022/12/18 03:06:36;;;;;;;53.50;26.70;;;;;;;-4.23;79.50;102107.64;103314;1324;37128;-73
2022/12/18 03:09:13;;;;;;;75.30;32.60;;;;;;;-4.23;79.48;102116.83;103367;1326;37103;-72
2022/12/18 03:14:41;;;;;;;85.90;36.30;;;;;;;-4.33;79.02;102135.58;102671;1326;921337;-74
2022/12/18 03:17:17;;;;;;;102.20;44.20;;;;;;;-4.35;79.16;102134.12;103306;1326;37301;-75
2022/12/18 03:19:50;;;;;;;77.90;36.50;;;;;;;-4.32;79.24;102136.29;103324;1328;37275;-73
2022/12/18 03:22:25;;;;;;;112.60;46.00;;;;;;;-4.28;79.49;102139.89;103316;1326;37332;-73
2022/12/18 03:24:59;;;;;;;66.30;29.50;;;;;;;-4.26;79.54;102140.54;103280;1326;37193;-73
2022/12/18 03:27:33;;;;;;;67.50;31.80;;;;;;;-4.26;79.37;102146.48;103255;1326;37117;-73
2022/12/18 03:30:10;;;;;;;68.80;32.00;;;;;;;-4.26;79.26;102146.50;103280;1326;37484;-75
2022/12/18 03:32:49;;;;;;;51.60;25.90;;;;;;;-4.26;79.03;102148.67;103291;1323;36249;-75
2022/12/18 03:35:27;;;;;;;56.70;27.80;;;;;;;-4.29;79.05;102152.83;103292;1326;37094;-75
2022/12/18 03:38:01;;;;;;;48.30;25.70;;;;;;;-4.30;79.07;102154.81;103243;1328;37052;-73
2022/12/18 03:40:50;;;;;;;54.50;26.70;;;;;;;-4.32;79.23;102155.39;103271;1322;37111;-74
2022/12/18 03:43:30;;;;;;;49.80;26.10;;;;;;;-4.29;79.21;102160.48;103290;1323;37198;-72
2022/12/18 03:46:07;;;;;;;52.60;26.70;;;;;;;-4.30;79.13;102161.77;103286;1326;37747;-72
2022/12/18 03:48:44;;;;;;;41.30;21.70;;;;;;;-4.28;79.10;102170.56;103345;1323;38536;-73
2022/12/18 03:51:22;;;;;;;49.60;27.50;;;;;;;-4.32;78.89;102169.84;103287;1326;37345;-73
2022/12/18 03:53:59;;;;;;;93.40;48.50;;;;;;;-4.35;79.05;102171.08;103286;1327;37316;-73
2022/12/18 03:56:34;;;;;;;59.20;32.90;;;;;;;-4.36;79.19;102171.02;103312;1322;37265;-74
2022/12/18 03:59:09;;;;;;;45.90;25.40;;;;;;;-4.39;79.03;102174.80;103243;1326;36404;-75
2022/12/18 04:01:46;;;;;;;39.80;23.30;;;;;;;-4.37;79.12;102181.54;103302;1324;37428;-75
2022/12/18 04:04:20;;;;;;;43.20;21.70;;;;;;;-4.37;78.93;102184.79;103390;1324;37247;-74
2022/12/18 04:06:54;;;;;;;55.20;26.70;;;;;;;-4.38;78.94;102184.39;103315;1326;37392;-74
2022/12/18 04:09:28;;;;;;;70.30;32.30;;;;;;;-4.39;78.91;102183.46;103322;1324;36549;-74
2022/12/18 04:12:02;;;;;;;78.40;35.90;;;;;;;-4.42;78.89;102187.77;103259;1326;37142;-74
2022/12/18 04:14:36;;;;;;;58.10;27.00;;;;;;;-4.46;78.82;102192.15;103298;1326;37131;-75
2022/12/18 04:17:10;;;;;;;83.80;34.80;;;;;;;-4.46;78.91;102199.48;103301;1322;36283;-75
2022/12/18 04:19:44;;;;;;;82.80;34.50;;;;;;;-4.45;78.77;102206.33;103317;1322;37235;-73
2022/12/18 04:22:18;;;;;;;68.50;31.40;;;;;;;-4.46;78.84;102213.95;103286;1312;37106;-73
2022/12/18 04:24:52;;;;;;;48.40;24.50;;;;;;;-4.48;78.85;102217.96;103281;1326;36155;-75
2022/12/18 04:27:25;;;;;;;40.10;20.60;;;;;;;-4.50;78.79;102225.66;103256;1326;37395;-74
2022/12/18 04:30:00;;;;;;;61.60;29.00;;;;;;;-4.55;78.57;102230.81;103277;1323;37431;-74
2022/12/18 04:32:34;;;;;;;57.70;26.70;;;;;;;-4.65;78.26;102226.93;103299;1323;37231;-74
2022/12/18 04:35:10;;;;;;;45.40;21.50;;;;;;;-4.73;78.33;102228.70;103317;1311;37220;-74
2022/12/18 04:37:44;;;;;;;35.80;19.00;;;;;;;-4.80;78.09;102229.69;103286;1326;36329;-74
2022/12/18 04:40:18;;;;;;;34.40;19.10;;;;;;;-4.90;78.04;102237.95;103316;1324;37142;-73
2022/12/18 04:42:52;;;;;;;42.00;20.80;;;;;;;-5.00;78.07;102242.89;103293;1328;36394;-73
2022/12/18 04:45:27;;;;;;;40.20;21.10;;;;;;;-5.13;77.94;102244.89;103365;1326;36834;-74
2022/12/18 04:48:01;;;;;;;37.10;19.70;;;;;;;-5.28;78.05;102247.27;103335;1323;37145;-72
2022/12/18 04:50:34;;;;;;;37.40;19.30;;;;;;;-5.40;77.91;102252.36;103361;1323;37115;-72
2022/12/18 04:53:08;;;;;;;34.90;18.30;;;;;;;-5.50;78.04;102254.52;103352;1326;37625;-73
2022/12/18 04:55:42;;;;;;;49.40;26.40;;;;;;;-5.62;77.72;102261.80;103337;1328;37120;-74
2022/12/18 04:58:16;;;;;;;47.50;24.60;;;;;;;-5.77;77.79;102260.79;103374;1326;37096;-73
2022/12/18 05:00:50;;;;;;;53.90;27.20;;;;;;;-5.84;78.05;102262.24;103289;1326;37221;-73
2022/12/18 05:03:24;;;;;;;53.30;27.10;;;;;;;-5.96;78.06;102267.19;103237;1326;175616;-73
2022/12/18 05:05:58;;;;;;;49.40;24.80;;;;;;;-6.01;78.05;102265.50;103300;1326;37317;-74
2022/12/18 05:08:33;;;;;;;45.30;24.10;;;;;;;-6.09;78.18;102263.85;103291;1326;37411;-73
2022/12/18 05:11:08;;;;;;;43.30;24.40;;;;;;;-6.18;78.15;102272.16;103252;1323;37007;-73
2022/12/18 05:13:42;;;;;;;44.60;22.90;;;;;;;-6.25;78.22;102277.14;103311;1326;37272;-72
2022/12/18 05:16:16;;;;;;;53.10;25.40;;;;;;;-6.30;78.75;102282.61;103254;1324;37216;-72
2022/12/18 05:18:49;;;;;;;47.20;23.00;;;;;;;-6.32;79.36;102290.64;103310;1326;36350;-73
2022/12/18 05:21:23;;;;;;;48.30;23.50;;;;;;;-6.33;79.59;102296.05;103241;1328;36145;-73
2022/12/18 05:23:57;;;;;;;54.10;25.20;;;;;;;-6.30;79.97;102303.67;103308;1326;37617;-73
2022/12/18 05:26:31;;;;;;;49.10;22.60;;;;;;;-6.24;80.28;102309.00;103275;1326;37185;-73
2022/12/18 05:29:05;;;;;;;44.40;22.90;;;;;;;-6.13;80.68;102307.11;103314;1326;37299;-73
2022/12/18 05:31:39;;;;;;;46.50;23.40;;;;;;;-6.02;80.81;102315.08;103312;1326;37141;-75
2022/12/18 05:34:13;;;;;;;50.60;23.20;;;;;;;-5.92;80.99;102314.80;103380;1326;38491;-74
2022/12/18 05:36:49;;;;;;;46.20;22.40;;;;;;;-5.84;81.11;102316.61;103324;1323;37104;-74
2022/12/18 05:39:24;;;;;;;50.90;23.70;;;;;;;-5.77;80.90;102320.42;103405;1325;37228;-73
2022/12/18 05:41:58;;;;;;;47.20;24.10;;;;;;;-5.69;81.05;102325.49;103312;1323;37358;-74
2022/12/18 05:44:32;;;;;;;64.00;29.90;;;;;;;-5.62;81.01;102327.27;103356;1327;37288;-74
2022/12/18 05:47:06;;;;;;;60.00;26.70;;;;;;;-5.54;81.01;102328.61;102638;1326;924886;-74
2022/12/18 05:49:42;;;;;;;57.90;27.20;;;;;;;-5.47;81.20;102329.02;103309;1329;37331;-73
2022/12/18 05:52:19;;;;;;;52.00;25.40;;;;;;;-5.44;81.04;102332.59;103309;1326;37258;-73
2022/12/18 05:54:54;;;;;;;63.40;29.70;;;;;;;-5.38;81.19;102333.58;103271;1326;37280;-73
2022/12/18 05:57:30;;;;;;;55.40;26.70;;;;;;;-5.32;81.08;102332.95;103259;1311;37535;-73
2022/12/18 06:00:04;;;;;;;47.90;23.50;;;;;;;-5.25;81.07;102334.89;103276;1323;37216;-74
2022/12/18 06:02:39;;;;;;;48.80;22.90;;;;;;;-5.20;81.19;102337.39;103270;1325;37150;-74
2022/12/18 06:05:13;;;;;;;49.00;23.10;;;;;;;-5.17;81.06;102336.85;103259;1326;37287;-73
2022/12/18 06:07:48;;;;;;;51.80;24.50;;;;;;;-5.17;81.00;102343.86;103324;1326;37240;-72
2022/12/18 06:10:22;;;;;;;55.60;24.50;;;;;;;-5.18;81.11;102348.23;103315;1322;37206;-74
2022/12/18 06:12:56;;;;;;;45.10;21.20;;;;;;;-5.18;81.06;102350.41;103332;1326;36103;-72
2022/12/18 06:15:30;;;;;;;48.40;23.40;;;;;;;-5.13;81.22;102349.15;103343;1327;37636;-71
2022/12/18 06:18:04;;;;;;;49.90;23.30;;;;;;;-5.11;81.08;102358.13;103300;1328;37236;-72
2022/12/18 06:20:39;;;;;;;49.20;24.60;;;;;;;-5.09;81.19;102368.30;103330;1326;37109;-74
2022/12/18 06:23:13;;;;;;;48.70;22.40;;;;;;;-5.05;81.04;102370.89;103311;1326;37112;-73
2022/12/18 06:25:47;;;;;;;51.30;24.10;;;;;;;-5.02;81.15;102376.69;103250;1324;36500;-75
2022/12/18 06:28:21;;;;;;;50.10;21.70;;;;;;;-5.01;81.13;102381.71;103279;1326;37939;-73
2022/12/18 06:30:55;;;;;;;47.30;21.20;;;;;;;-4.98;81.20;102383.55;103265;1327;37423;-73
2022/12/18 06:33:30;;;;;;;44.70;22.00;;;;;;;-4.96;81.21;102384.73;103300;1323;36276;-74
2022/12/18 06:36:05;;;;;;;49.20;24.00;;;;;;;-4.91;81.29;102394.87;103310;1326;37319;-74
2022/12/18 06:38:41;;;;;;;50.10;22.90;;;;;;;-4.88;81.36;102397.21;103289;1324;37533;-72
2022/12/18 06:41:17;;;;;;;56.60;26.30;;;;;;;-4.86;81.36;102402.10;103277;1326;37100;-72
2022/12/18 06:43:51;;;;;;;48.70;23.40;;;;;;;-4.84;81.35;102407.00;103385;1323;36153;-73
2022/12/18 06:46:25;;;;;;;47.20;23.00;;;;;;;-4.80;81.43;102410.83;103299;1325;38332;-74
2022/12/18 06:48:59;;;;;;;46.30;21.70;;;;;;;-4.74;81.35;102418.45;102963;1326;540815;-73
2022/12/18 06:51:33;;;;;;;52.30;23.60;;;;;;;-4.70;81.36;102417.87;103298;1328;36052;-71
2022/12/18 06:54:07;;;;;;;50.00;24.00;;;;;;;-4.68;81.31;102417.98;103326;1313;37336;-73
2022/12/18 06:56:41;;;;;;;48.10;22.60;;;;;;;-4.64;81.40;102423.11;103309;1326;37139;-74
2022/12/18 06:59:16;;;;;;;55.20;23.60;;;;;;;-4.61;81.36;102428.02;103336;1312;37292;-73
2022/12/18 07:01:50;;;;;;;49.70;24.40;;;;;;;-4.60;81.33;102434.09;103279;1326;38402;-73
2022/12/18 07:04:27;;;;;;;46.90;23.60;;;;;;;-4.58;81.17;102437.61;103292;1328;37067;-72
2022/12/18 07:07:01;;;;;;;47.20;23.20;;;;;;;-4.57;81.24;102437.17;103269;1326;36965;-72
2022/12/18 07:09:36;;;;;;;48.60;23.40;;;;;;;-4.55;81.25;102436.42;103173;1326;175511;-72
2022/12/18 07:12:10;;;;;;;54.30;26.70;;;;;;;-4.53;81.45;102436.54;103280;1326;37320;-73
2022/12/18 07:14:44;;;;;;;51.40;23.90;;;;;;;-4.49;81.49;102449.70;103254;1326;37352;-73
2022/12/18 07:17:18;;;;;;;55.80;26.20;;;;;;;-4.45;81.47;102454.35;103272;1326;37859;-71
2022/12/18 07:19:52;;;;;;;46.10;22.20;;;;;;;-4.40;81.40;102453.11;103308;1326;36566;-74
2022/12/18 07:22:27;;;;;;;54.40;24.20;;;;;;;-4.32;81.52;102459.48;103276;1326;36557;-74
2022/12/18 07:25:01;;;;;;;52.90;25.10;;;;;;;-4.28;81.53;102458.39;103347;1323;37138;-72
2022/12/18 07:27:35;;;;;;;52.30;24.50;;;;;;;-4.23;81.43;102458.45;103237;1326;175437;-72
2022/12/18 07:30:13;;;;;;;52.90;25.70;;;;;;;-4.21;81.40;102464.54;103346;1324;36319;-72
2022/12/18 07:32:47;;;;;;;53.30;23.80;;;;;;;-4.19;81.53;102468.27;103323;1322;37183;-72
2022/12/18 07:35:22;;;;;;;49.40;23.50;;;;;;;-4.12;81.53;102474.77;103343;1322;38641;-74
2022/12/18 07:37:55;;;;;;;51.50;23.00;;;;;;;-4.08;81.39;102471.37;103293;1326;36316;-74
2022/12/18 07:40:30;;;;;;;51.60;23.80;;;;;;;-4.03;81.30;102476.61;103302;1323;37285;-73
2022/12/18 07:43:04;;;;;;;49.40;24.10;;;;;;;-4.00;81.24;102476.11;103333;1326;37266;-74
2022/12/18 07:45:37;;;;;;;47.10;23.40;;;;;;;-3.99;81.00;102484.71;103334;1326;36783;-74
2022/12/18 07:48:11;;;;;;;51.40;23.90;;;;;;;-3.98;81.08;102491.89;103285;1324;37154;-72
2022/12/18 07:50:45;;;;;;;54.80;25.90;;;;;;;-3.99;81.09;102497.98;103245;1328;37272;-72
2022/12/18 07:53:19;;;;;;;51.50;24.30;;;;;;;-3.97;81.09;102502.91;103306;1323;38332;-72
2022/12/18 07:55:58;;;;;;;55.30;24.70;;;;;;;-3.89;81.32;102508.27;103295;1326;37365;-73
2022/12/18 07:58:32;;;;;;;51.20;24.20;;;;;;;-3.78;81.18;102515.48;103294;1325;37855;-73
2022/12/18 08:01:10;;;;;;;53.50;25.70;;;;;;;-3.76;80.85;102518.89;103226;1325;37269;-71
2022/12/18 08:03:44;;;;;;;45.40;22.60;;;;;;;-3.76;80.64;102522.59;103308;1326;37476;-73
2022/12/18 08:06:18;;;;;;;51.90;23.90;;;;;;;-3.78;80.42;102523.32;103284;1324;37112;-74
2022/12/18 08:08:53;;;;;;;49.40;23.00;;;;;;;-3.82;80.32;102528.73;103175;1324;175603;-74
2022/12/18 08:11:28;;;;;;;44.30;21.40;;;;;;;-3.86;80.23;102535.33;103295;1326;38428;-74
2022/12/18 08:14:02;;;;;;;48.40;23.00;;;;;;;-3.84;80.56;102535.14;103324;1326;37590;-74
2022/12/18 08:16:36;;;;;;;48.60;24.50;;;;;;;-3.77;80.48;102534.33;103298;1323;37235;-73
2022/12/18 08:19:12;;;;;;;48.60;24.40;;;;;;;-3.80;80.20;102537.40;103371;1326;36232;-73
2022/12/18 08:21:46;;;;;;;52.80;24.60;;;;;;;-3.79;80.57;102534.05;103331;1323;37186;-73
2022/12/18 08:24:20;;;;;;;46.70;22.80;;;;;;;-3.77;80.64;102541.84;103372;1326;37531;-74
2022/12/18 08:26:54;;;;;;;46.80;23.40;;;;;;;-3.73;80.53;102546.33;103366;1323;38034;-74
2022/12/18 08:29:28;;;;;;;49.00;23.70;;;;;;;-3.73;80.22;102558.63;103356;1326;37118;-73
2022/12/18 08:32:02;;;;;;;48.60;23.70;;;;;;;-3.71;80.39;102563.33;103353;1325;37145;-73
2022/12/18 08:34:36;;;;;;;50.70;24.90;;;;;;;-3.67;80.40;102565.91;103331;1326;36242;-74
2022/12/18 08:37:10;;;;;;;46.40;21.70;;;;;;;-3.58;80.67;102572.05;103210;1322;177882;-75
2022/12/18 08:39:44;;;;;;;48.20;22.80;;;;;;;-3.51;80.67;102577.89;103278;1326;37197;-75
2022/12/18 08:45:13;;;;;;;45.10;22.10;;;;;;;-3.33;80.23;102573.05;103329;1328;37237;-74
2022/12/18 08:47:47;;;;;;;48.10;24.60;;;;;;;-3.30;80.00;102573.56;103319;1322;37269;-74
2022/12/18 08:50:22;;;;;;;53.80;25.40;;;;;;;-3.33;79.73;102568.95;103277;1326;37133;-75
2022/12/18 08:52:56;;;;;;;47.60;23.40;;;;;;;-3.34;79.81;102577.11;103293;1323;37793;-73
2022/12/18 08:55:30;;;;;;;47.60;24.00;;;;;;;-3.29;79.97;102579.23;103301;1325;37254;-73
2022/12/18 08:58:05;;;;;;;48.20;22.70;;;;;;;-3.29;79.87;102578.41;103248;1326;175471;-72
2022/12/18 09:00:40;;;;;;;48.30;22.90;;;;;;;-3.25;79.64;102578.60;103395;1326;37113;-72
2022/12/18 09:03:17;;;;;;;48.20;22.40;;;;;;;-3.26;79.55;102578.73;103407;1326;36660;-72
2022/12/18 09:05:53;;;;;;;49.20;24.60;;;;;;;-3.25;79.60;102579.95;102708;1323;915981;-75
2022/12/18 09:08:28;;;;;;;48.00;23.50;;;;;;;-3.23;79.59;102583.98;103316;1326;37231;-73
2022/12/18 09:11:05;;;;;;;49.50;22.90;;;;;;;-3.18;79.72;102588.88;103377;1327;37174;-72
2022/12/18 09:13:41;;;;;;;51.60;25.40;;;;;;;-3.12;79.55;102591.42;103318;1324;37236;-70
2022/12/18 09:16:16;;;;;;;47.10;22.00;;;;;;;-3.07;79.44;102595.25;103337;1327;37227;-72
2022/12/18 09:18:53;;;;;;;46.20;21.90;;;;;;;-3.07;79.23;102595.94;103317;1328;37381;-73
2022/12/18 09:21:29;;;;;;;45.90;22.40;;;;;;;-3.06;79.18;102601.12;103300;1326;37267;-72
2022/12/18 09:24:03;;;;;;;43.20;21.00;;;;;;;-3.06;79.05;102602.86;103287;1324;37119;-75
2022/12/18 09:26:37;;;;;;;42.10;21.20;;;;;;;-3.01;79.15;102603.92;103319;1325;36510;-75
2022/12/18 09:29:11;;;;;;;43.30;22.70;;;;;;;-2.95;79.05;102602.57;103323;1324;37136;-73
2022/12/18 09:31:45;;;;;;;43.10;22.40;;;;;;;-2.90;78.90;102597.88;103245;1326;36180;-72
2022/12/18 09:34:20;;;;;;;44.40;22.50;;;;;;;-2.82;79.03;102599.17;103261;1329;37455;-72
2022/12/18 09:36:55;;;;;;;46.10;23.20;;;;;;;-2.73;79.06;102604.73;103262;1326;37285;-73
2022/12/18 09:39:29;;;;;;;44.60;22.70;;;;;;;-2.66;79.06;102598.27;103287;1324;37389;-73
2022/12/18 09:42:03;;;;;;;43.80;20.40;;;;;;;-2.62;78.76;102593.00;103283;1327;38581;-72
2022/12/18 09:44:40;;;;;;;37.20;20.30;;;;;;;-2.56;78.71;102590.25;103273;1324;37142;-74
2022/12/18 09:47:19;;;;;;;46.10;22.80;;;;;;;-2.53;78.39;102596.52;103159;1326;174198;-74
2022/12/18 09:49:56;;;;;;;45.70;23.30;;;;;;;-2.55;78.25;102600.54;103266;1328;36978;-74
2022/12/18 09:52:35;;;;;;;44.60;22.90;;;;;;;-2.54;78.36;102601.63;103309;1325;37412;-74
2022/12/18 09:55:18;;;;;;;45.20;23.70;;;;;;;-2.51;78.31;102602.98;103154;1330;38360;-74
2022/12/18 09:57:56;;;;;;;43.60;21.70;;;;;;;-2.46;78.30;102605.63;103306;1327;37491;-74
2022/12/18 10:00:30;;;;;;;38.50;19.90;;;;;;;-2.43;77.93;102606.63;103259;1326;36230;-74
2022/12/18 10:03:10;;;;;;;43.70;22.10;;;;;;;-2.43;77.60;102613.46;103163;1326;175325;-73
2022/12/18 10:05:53;;;;;;;44.50;23.70;;;;;;;-2.41;77.89;102617.69;103259;1326;37570;-73
2022/12/18 10:08:34;;;;;;;44.60;24.10;;;;;;;-2.41;77.53;102625.52;103297;1329;36162;-74
2022/12/18 10:11:25;;;;;;;48.20;25.00;;;;;;;-2.42;77.61;102628.39;103292;1326;37378;-75
2022/12/18 10:14:02;;;;;;;42.80;22.20;;;;;;;-2.41;77.60;102633.06;103264;1325;37117;-74
2022/12/18 10:16:50;;;;;;;42.00;23.50;;;;;;;-2.38;77.51;102634.05;103313;1326;37430;-75
2022/12/18 10:19:48;;;;;;;41.20;22.70;;;;;;;-2.39;77.08;102632.31;103288;1326;37100;-74
2022/12/18 10:22:31;;;;;;;43.80;23.00;;;;;;;-2.39;77.19;102631.48;103314;1326;37131;-75
2022/12/18 10:25:06;;;;;;;42.80;23.30;;;;;;;-2.38;77.29;102628.27;103182;1326;188898;-74
2022/12/18 10:27:40;;;;;;;48.00;24.50;;;;;;;-2.35;77.28;102626.20;103300;1324;36189;-74
2022/12/18 10:30:20;;;;;;;44.90;22.30;;;;;;;-2.30;77.62;102630.05;103311;1326;37171;-74
2022/12/18 10:32:56;;;;;;;41.50;21.70;;;;;;;-2.24;77.23;102626.56;103290;1326;36538;-74
2022/12/18 10:35:31;;;;;;;39.60;20.60;;;;;;;-2.21;77.05;102616.48;103335;1327;36867;-73
2022/12/18 10:38:25;;;;;;;41.10;22.80;;;;;;;-2.18;77.10;102622.13;103371;1326;37018;-75
2022/12/18 10:41:01;;;;;;;49.00;25.20;;;;;;;-2.12;77.26;102625.29;103287;1326;37205;-77
2022/12/18 10:43:35;;;;;;;49.20;25.70;;;;;;;-2.04;77.20;102616.95;103336;1326;37149;-74
2022/12/18 10:46:28;;;;;;;51.80;25.20;;;;;;;-1.98;77.08;102617.94;103306;1328;37101;-74
2022/12/18 10:49:05;;;;;;;49.30;24.60;;;;;;;-2.01;76.35;102616.42;103447;1326;37305;-74
2022/12/18 10:52:16;;;;;;;45.50;22.20;;;;;;;-2.01;76.56;102614.55;103313;1329;37192;-74
2022/12/18 10:54:54;;;;;;;48.50;24.10;;;;;;;-1.97;76.36;102612.00;103366;1328;37249;-73
2022/12/18 10:57:41;;;;;;;47.40;23.40;;;;;;;-1.91;76.14;102622.20;102625;1325;917749;-71
2022/12/18 11:00:30;;;;;;;52.90;25.70;;;;;;;-1.91;76.11;102618.80;103330;1324;37188;-75
2022/12/18 11:03:08;;;;;;;56.90;28.20;;;;;;;-1.85;76.23;102618.59;102676;1326;915962;-74
2022/12/18 11:05:52;;;;;;;56.50;28.90;;;;;;;-1.76;76.04;102621.08;103289;1326;37372;-74
2022/12/18 11:08:27;;;;;;;57.70;28.70;;;;;;;-1.74;75.55;102624.73;103312;1327;36225;-73
2022/12/18 11:11:02;;;;;;;55.70;28.00;;;;;;;-1.76;75.96;102623.79;103194;1327;175024;-73
2022/12/18 11:13:38;;;;;;;58.90;27.80;;;;;;;-1.75;75.74;102620.94;103333;1327;38453;-77
2022/12/18 11:16:21;;;;;;;49.40;25.20;;;;;;;-1.72;76.10;102618.88;103252;1326;36126;-74
2022/12/18 11:18:55;;;;;;;52.30;27.50;;;;;;;-1.67;75.48;102617.42;103276;1326;37154;-75
2022/12/18 11:21:30;;;;;;;56.10;28.80;;;;;;;-1.64;75.70;102617.52;103332;1326;37718;-72
2022/12/18 11:24:05;;;;;;;55.70;28.20;;;;;;;-1.63;75.55;102618.30;103272;1326;38243;-72
2022/12/18 11:26:43;;;;;;;56.40;27.70;;;;;;;-1.65;75.27;102621.60;103136;1326;174994;-72
2022/12/18 11:29:30;;;;;;;57.80;28.50;;;;;;;-1.72;74.90;102628.27;103339;1328;37430;-73
2022/12/18 11:32:39;;;;;;;57.60;28.40;;;;;;;-1.82;74.90;102624.20;103334;1319;37259;-69
2022/12/18 11:35:21;;;;;;;61.10;31.00;;;;;;;-1.86;75.00;102628.30;103137;1328;37246;-75
2022/12/18 11:38:02;;;;;;;72.50;34.90;;;;;;;-1.82;75.29;102629.72;103276;1326;37374;-72
2022/12/18 11:40:43;;;;;;;72.90;36.70;;;;;;;-1.77;75.47;102627.36;103221;1326;36938;-72
2022/12/18 11:43:21;;;;;;;70.50;33.80;;;;;;;-1.72;75.65;102624.38;103276;1328;37092;-74
2022/12/18 11:46:00;;;;;;;66.50;34.30;;;;;;;-1.69;75.58;102619.88;103287;1326;37271;-76
2022/12/18 11:48:39;;;;;;;63.10;31.10;;;;;;;-1.66;75.61;102627.03;103274;1326;37343;-71
2022/12/18 11:51:16;;;;;;;;;;;;;;;-1.62;75.37;102629.79;103301;1326;37137;-73